createdAt,value
2018-09-20T00:00:22.817Z,24.03
2018-09-20T00:00:54.448Z,24.00
2018-09-20T00:01:26.081Z,24.01
2018-09-20T00:01:57.717Z,23.99
2018-09-20T00:02:29.341Z,24.00
2018-09-20T00:03:00.970Z,23.98
2018-09-20T00:03:32.592Z,24.00
2018-09-20T00:04:04.224Z,24.00
2018-09-20T00:04:35.848Z,24.01
2018-09-20T00:05:07.478Z,24.00
2018-09-20T00:05:39.128Z,24.00
2018-09-20T00:06:10.748Z,24.01
2018-09-20T00:06:42.382Z,24.01
2018-09-20T00:07:14.008Z,24.00
2018-09-20T00:07:45.628Z,23.99
2018-09-20T00:08:17.246Z,24.00
2018-09-20T00:08:48.864Z,23.99
2018-09-20T00:09:20.499Z,23.99
2018-09-20T00:09:52.138Z,24.00
2018-09-20T00:10:23.766Z,23.99
2018-09-20T00:10:55.393Z,23.99
2018-09-20T00:11:27.590Z,23.98
2018-09-20T00:11:59.227Z,23.98
2018-09-20T00:12:30.871Z,23.98
2018-09-20T00:13:02.496Z,23.99
2018-09-20T00:13:34.116Z,23.99
2018-09-20T00:14:05.736Z,24.00
2018-09-20T00:14:37.352Z,24.01
2018-09-20T00:15:09.104Z,24.02
2018-09-20T00:15:40.735Z,24.05
2018-09-20T00:16:12.491Z,23.90
2018-09-20T00:16:44.127Z,23.91
2018-09-20T00:17:15.753Z,23.93
2018-09-20T00:17:47.384Z,23.90
2018-09-20T00:18:19.014Z,23.84
2018-09-20T00:18:50.628Z,23.85
2018-09-20T00:19:22.248Z,23.88
2018-09-20T00:19:53.890Z,23.88
2018-09-20T00:20:25.518Z,23.89
2018-09-20T00:20:57.136Z,23.90
2018-09-20T00:21:28.792Z,23.90
2018-09-20T00:22:00.427Z,23.91
2018-09-20T00:22:32.054Z,23.92
2018-09-20T00:23:03.681Z,23.93
2018-09-20T00:23:35.301Z,23.94
2018-09-20T00:24:06.929Z,23.96
2018-09-20T00:24:38.580Z,23.97
2018-09-20T00:25:10.200Z,23.98
2018-09-20T00:25:41.846Z,23.99
2018-09-20T00:26:13.468Z,24.00
2018-09-20T00:26:45.262Z,24.01
2018-09-20T00:27:16.885Z,24.02
2018-09-20T00:27:48.552Z,24.03
2018-09-20T00:28:20.182Z,24.03
2018-09-20T00:28:51.819Z,24.03
2018-09-20T00:29:23.448Z,24.03
2018-09-20T00:29:55.078Z,24.03
2018-09-20T00:30:26.700Z,24.03
2018-09-20T00:30:58.333Z,24.04
2018-09-20T00:31:29.956Z,24.04
2018-09-20T00:32:01.696Z,24.03
2018-09-20T00:32:34.396Z,24.01
2018-09-20T00:33:06.031Z,24.04
2018-09-20T00:33:37.667Z,24.04
2018-09-20T00:34:09.298Z,24.03
2018-09-20T00:34:40.930Z,24.03
2018-09-20T00:35:12.554Z,24.02
2018-09-20T00:35:44.183Z,24.03
2018-09-20T00:36:15.815Z,24.02
2018-09-20T00:36:47.447Z,24.02
2018-09-20T00:37:19.189Z,24.02
2018-09-20T00:37:50.805Z,24.02
2018-09-20T00:38:22.443Z,24.03
2018-09-20T00:38:54.079Z,24.02
2018-09-20T00:39:25.701Z,24.02
2018-09-20T00:39:57.323Z,24.02
2018-09-20T00:40:28.940Z,24.02
2018-09-20T00:41:00.564Z,24.01
2018-09-20T00:41:32.192Z,24.01
2018-09-20T00:42:03.812Z,23.99
2018-09-20T00:42:35.562Z,24.01
2018-09-20T00:43:07.312Z,24.01
2018-09-20T00:43:38.943Z,24.01
2018-09-20T00:44:10.560Z,24.01
2018-09-20T00:44:42.190Z,24.01
2018-09-20T00:45:13.825Z,23.99
2018-09-20T00:45:45.440Z,24.00
2018-09-20T00:46:17.060Z,24.00
2018-09-20T00:46:48.700Z,24.00
2018-09-20T00:47:20.325Z,24.00
2018-09-20T00:47:51.954Z,24.00
2018-09-20T00:48:23.572Z,23.99
2018-09-20T00:48:55.195Z,23.99
2018-09-20T00:49:26.837Z,23.99
2018-09-20T00:49:58.460Z,23.99
2018-09-20T00:50:30.097Z,23.99
2018-09-20T00:51:01.721Z,23.99
2018-09-20T00:51:33.340Z,23.98
2018-09-20T00:52:04.970Z,23.99
2018-09-20T00:52:36.606Z,23.99
2018-09-20T00:53:08.352Z,23.99
2018-09-20T00:53:39.972Z,23.99
2018-09-20T00:54:11.589Z,23.99
2018-09-20T00:54:43.204Z,23.99
2018-09-20T00:55:14.834Z,23.99
2018-09-20T00:55:46.467Z,23.97
2018-09-20T00:56:18.106Z,24.01
2018-09-20T00:56:49.728Z,24.01
2018-09-20T00:57:21.347Z,24.02
2018-09-20T00:57:52.964Z,24.03
2018-09-20T00:58:24.719Z,24.02
2018-09-20T00:58:56.336Z,24.03
2018-09-20T00:59:27.948Z,24.01
2018-09-20T00:59:59.567Z,24.03
2018-09-20T01:00:31.235Z,24.02
2018-09-20T01:01:02.868Z,24.02
2018-09-20T01:01:34.514Z,24.02
2018-09-20T01:02:06.146Z,24.00
2018-09-20T01:02:37.769Z,24.02
2018-09-20T01:03:09.401Z,24.02
2018-09-20T01:03:41.165Z,24.02
2018-09-20T01:04:12.798Z,24.02
2018-09-20T01:04:44.417Z,24.02
2018-09-20T01:05:16.040Z,23.91
2018-09-20T01:05:47.678Z,24.03
2018-09-20T01:06:19.311Z,24.04
2018-09-20T01:06:50.945Z,24.04
2018-09-20T01:07:22.578Z,24.04
2018-09-20T01:07:54.210Z,24.04
2018-09-20T01:08:25.864Z,24.04
2018-09-20T01:08:57.704Z,24.01
2018-09-20T01:09:29.324Z,24.01
2018-09-20T01:10:00.954Z,24.00
2018-09-20T01:10:32.589Z,23.99
2018-09-20T01:11:04.222Z,23.98
2018-09-20T01:11:35.867Z,23.97
2018-09-20T01:12:07.484Z,23.96
2018-09-20T01:12:39.108Z,23.95
2018-09-20T01:13:10.739Z,23.95
2018-09-20T01:13:42.403Z,23.94
2018-09-20T01:14:14.149Z,23.93
2018-09-20T01:14:45.782Z,23.91
2018-09-20T01:15:17.415Z,23.91
2018-09-20T01:15:49.038Z,23.91
2018-09-20T01:16:20.671Z,23.91
2018-09-20T01:16:52.303Z,23.90
2018-09-20T01:17:23.938Z,23.90
2018-09-20T01:17:55.566Z,23.90
2018-09-20T01:18:28.254Z,23.90
2018-09-20T01:18:59.891Z,23.88
2018-09-20T01:19:31.628Z,23.89
2018-09-20T01:20:03.263Z,23.89
2018-09-20T01:20:34.898Z,23.89
2018-09-20T01:21:06.520Z,23.90
2018-09-20T01:21:38.145Z,23.88
2018-09-20T01:22:09.764Z,23.89
2018-09-20T01:22:41.432Z,23.88
2018-09-20T01:23:13.045Z,23.88
2018-09-20T01:23:44.678Z,23.89
2018-09-20T01:24:16.319Z,23.89
2018-09-20T01:24:48.071Z,23.87
2018-09-20T01:25:19.691Z,23.87
2018-09-20T01:25:51.322Z,23.87
2018-09-20T01:26:22.944Z,23.87
2018-09-20T01:26:54.569Z,23.87
2018-09-20T01:27:26.188Z,23.86
2018-09-20T01:27:57.824Z,23.87
2018-09-20T01:28:29.464Z,23.87
2018-09-20T01:29:01.096Z,23.87
2018-09-20T01:29:32.717Z,23.87
2018-09-20T01:30:04.349Z,23.84
2018-09-20T01:30:35.980Z,23.86
2018-09-20T01:31:07.615Z,23.87
2018-09-20T01:31:39.237Z,23.86
2018-09-20T01:32:10.860Z,23.86
2018-09-20T01:32:42.495Z,23.86
2018-09-20T01:33:14.138Z,23.86
2018-09-20T01:33:45.775Z,23.86
2018-09-20T01:34:17.423Z,23.86
2018-09-20T01:34:49.048Z,23.86
2018-09-20T01:35:20.816Z,23.86
2018-09-20T01:35:53.230Z,23.86
2018-09-20T01:36:24.867Z,23.87
2018-09-20T01:36:56.513Z,23.88
2018-09-20T01:37:28.147Z,23.90
2018-09-20T01:37:59.778Z,23.92
2018-09-20T01:38:31.410Z,23.91
2018-09-20T01:39:03.044Z,23.94
2018-09-20T01:39:34.674Z,23.95
2018-09-20T01:40:06.306Z,23.95
2018-09-20T01:40:38.496Z,23.76
2018-09-20T01:41:10.131Z,23.96
2018-09-20T01:41:41.858Z,23.96
2018-09-20T01:42:13.490Z,23.96
2018-09-20T01:42:45.123Z,23.96
2018-09-20T01:43:16.754Z,23.97
2018-09-20T01:43:48.395Z,23.96
2018-09-20T01:44:20.035Z,23.96
2018-09-20T01:44:51.673Z,23.96
2018-09-20T01:45:23.288Z,23.98
2018-09-20T01:45:55.062Z,23.97
2018-09-20T01:46:26.695Z,23.98
2018-09-20T01:46:58.316Z,23.97
2018-09-20T01:47:30.454Z,23.95
2018-09-20T01:48:02.072Z,23.96
2018-09-20T01:48:33.693Z,23.96
2018-09-20T01:49:05.323Z,23.96
2018-09-20T01:49:36.967Z,23.95
2018-09-20T01:50:08.584Z,23.94
2018-09-20T01:50:40.214Z,23.93
2018-09-20T01:51:12.042Z,23.94
2018-09-20T01:51:43.665Z,23.93
2018-09-20T01:52:15.302Z,23.93
2018-09-20T01:52:46.939Z,23.92
2018-09-20T01:53:18.556Z,23.92
2018-09-20T01:53:50.181Z,23.92
2018-09-20T01:54:21.800Z,23.92
2018-09-20T01:54:53.430Z,23.93
2018-09-20T01:55:25.053Z,23.93
2018-09-20T01:55:56.686Z,23.95
2018-09-20T01:56:28.510Z,23.96
2018-09-20T01:57:00.142Z,23.96
2018-09-20T01:57:31.774Z,23.97
2018-09-20T01:58:03.407Z,23.97
2018-09-20T01:58:35.032Z,23.97
2018-09-20T01:59:06.665Z,23.98
2018-09-20T01:59:39.040Z,23.98
2018-09-20T02:00:10.672Z,23.97
2018-09-20T02:00:42.312Z,23.99
2018-09-20T02:01:13.936Z,23.99
2018-09-20T02:01:45.691Z,23.99
2018-09-20T02:02:17.331Z,24.00
2018-09-20T02:02:48.956Z,23.99
2018-09-20T02:03:20.590Z,23.99
2018-09-20T02:03:52.222Z,24.00
2018-09-20T02:04:23.840Z,24.00
2018-09-20T02:04:55.459Z,23.99
2018-09-20T02:05:27.072Z,23.98
2018-09-20T02:05:58.692Z,23.99
2018-09-20T02:06:30.312Z,23.99
2018-09-20T02:07:01.943Z,23.98
2018-09-20T02:07:33.579Z,23.98
2018-09-20T02:08:05.255Z,23.97
2018-09-20T02:08:36.876Z,23.78
2018-09-20T02:09:08.500Z,23.97
2018-09-20T02:09:40.134Z,23.96
2018-09-20T02:10:11.757Z,23.96
2018-09-20T02:10:44.149Z,23.97
2018-09-20T02:11:15.778Z,23.97
2018-09-20T02:11:47.411Z,23.97
2018-09-20T02:12:19.074Z,23.98
2018-09-20T02:12:50.693Z,23.97
2018-09-20T02:13:22.322Z,23.98
2018-09-20T02:13:53.937Z,23.98
2018-09-20T02:14:25.571Z,23.98
2018-09-20T02:14:57.200Z,23.99
2018-09-20T02:15:28.831Z,23.98
2018-09-20T02:16:00.467Z,23.99
2018-09-20T02:16:32.103Z,23.98
2018-09-20T02:17:03.944Z,23.98
2018-09-20T02:17:35.744Z,23.99
2018-09-20T02:18:07.376Z,23.98
2018-09-20T02:18:39.010Z,23.98
2018-09-20T02:19:10.644Z,23.97
2018-09-20T02:19:42.295Z,23.98
2018-09-20T02:20:13.934Z,23.97
2018-09-20T02:20:45.570Z,23.96
2018-09-20T02:21:17.192Z,23.97
2018-09-20T02:21:48.823Z,23.96
2018-09-20T02:22:20.455Z,23.96
2018-09-20T02:22:52.196Z,23.98
2018-09-20T02:23:23.815Z,23.99
2018-09-20T02:23:55.436Z,24.00
2018-09-20T02:24:27.067Z,24.01
2018-09-20T02:24:58.723Z,24.01
2018-09-20T02:25:30.359Z,24.01
2018-09-20T02:26:02.001Z,24.02
2018-09-20T02:26:33.635Z,24.02
2018-09-20T02:27:05.266Z,24.02
2018-09-20T02:27:36.916Z,24.01
2018-09-20T02:28:08.671Z,24.01
2018-09-20T02:28:40.288Z,24.01
2018-09-20T02:29:11.923Z,24.01
2018-09-20T02:29:43.544Z,24.01
2018-09-20T02:30:15.161Z,24.01
2018-09-20T02:30:46.790Z,24.01
2018-09-20T02:31:18.431Z,24.01
2018-09-20T02:31:50.064Z,24.00
2018-09-20T02:32:21.698Z,24.00
2018-09-20T02:32:53.331Z,23.99
2018-09-20T02:33:25.079Z,23.99
2018-09-20T02:33:56.696Z,24.00
2018-09-20T02:34:28.503Z,23.99
2018-09-20T02:35:00.143Z,23.99
2018-09-20T02:35:31.764Z,23.99
2018-09-20T02:36:03.388Z,23.98
2018-09-20T02:36:36.565Z,23.98
2018-09-20T02:37:08.198Z,23.98
2018-09-20T02:37:39.817Z,23.97
2018-09-20T02:38:11.451Z,23.98
2018-09-20T02:38:43.198Z,23.97
2018-09-20T02:39:14.836Z,23.97
2018-09-20T02:39:46.471Z,23.97
2018-09-20T02:40:18.112Z,23.97
2018-09-20T02:40:49.747Z,23.78
2018-09-20T02:41:21.390Z,23.97
2018-09-20T02:41:53.015Z,23.96
2018-09-20T02:42:24.650Z,23.96
2018-09-20T02:42:56.276Z,23.96
2018-09-20T02:43:27.911Z,23.96
2018-09-20T02:43:59.656Z,23.97
2018-09-20T02:44:31.291Z,23.97
2018-09-20T02:45:02.926Z,23.96
2018-09-20T02:45:34.549Z,23.96
2018-09-20T02:46:06.178Z,23.96
2018-09-20T02:46:37.805Z,23.94
2018-09-20T02:47:09.439Z,23.96
2018-09-20T02:47:41.061Z,23.96
2018-09-20T02:48:12.700Z,23.96
2018-09-20T02:48:44.335Z,23.96
2018-09-20T02:49:15.959Z,23.93
2018-09-20T02:49:47.578Z,23.95
2018-09-20T02:50:19.200Z,23.95
2018-09-20T02:50:50.832Z,23.95
2018-09-20T02:51:22.470Z,23.94
2018-09-20T02:51:54.103Z,23.95
2018-09-20T02:52:25.726Z,23.95
2018-09-20T02:52:57.362Z,23.95
2018-09-20T02:53:28.985Z,23.94
2018-09-20T02:54:00.647Z,23.92
2018-09-20T02:54:32.315Z,23.93
2018-09-20T02:55:03.936Z,23.94
2018-09-20T02:55:35.566Z,23.93
2018-09-20T02:56:07.188Z,23.94
2018-09-20T02:56:38.804Z,23.93
2018-09-20T02:57:10.442Z,23.93
2018-09-20T02:57:42.064Z,23.93
2018-09-20T02:58:13.681Z,23.92
2018-09-20T02:58:45.307Z,23.93
2018-09-20T02:59:17.077Z,23.93
2018-09-20T02:59:48.710Z,23.93
2018-09-20T03:00:20.343Z,23.93
2018-09-20T03:00:52.005Z,23.91
2018-09-20T03:01:23.623Z,23.92
2018-09-20T03:01:55.252Z,23.92
2018-09-20T03:02:28.303Z,23.93
2018-09-20T03:02:59.965Z,23.92
2018-09-20T03:03:31.572Z,23.92
2018-09-20T03:04:03.196Z,23.91
2018-09-20T03:04:34.937Z,23.91
2018-09-20T03:05:06.557Z,23.92
2018-09-20T03:05:38.179Z,23.91
2018-09-20T03:06:09.800Z,23.92
2018-09-20T03:06:41.424Z,23.91
2018-09-20T03:07:13.054Z,23.91
2018-09-20T03:07:44.676Z,23.91
2018-09-20T03:08:16.313Z,23.92
2018-09-20T03:08:47.943Z,23.92
2018-09-20T03:09:19.579Z,23.93
2018-09-20T03:09:51.324Z,23.94
2018-09-20T03:10:22.941Z,23.84
2018-09-20T03:10:54.559Z,23.95
2018-09-20T03:11:26.172Z,23.95
2018-09-20T03:11:57.801Z,23.96
2018-09-20T03:12:29.435Z,23.95
2018-09-20T03:13:01.053Z,23.96
2018-09-20T03:13:32.690Z,23.95
2018-09-20T03:14:04.309Z,23.96
2018-09-20T03:14:35.944Z,23.97
2018-09-20T03:15:07.751Z,23.98
2018-09-20T03:15:39.373Z,23.98
2018-09-20T03:16:11.002Z,23.98
2018-09-20T03:16:42.725Z,23.97
2018-09-20T03:17:14.362Z,23.77
2018-09-20T03:17:46.003Z,23.97
2018-09-20T03:18:17.638Z,23.97
2018-09-20T03:18:49.274Z,23.97
2018-09-20T03:19:20.904Z,23.98
2018-09-20T03:19:52.538Z,23.97
2018-09-20T03:20:24.291Z,23.97
2018-09-20T03:20:55.908Z,23.96
2018-09-20T03:21:27.533Z,23.94
2018-09-20T03:21:59.162Z,23.96
2018-09-20T03:22:30.781Z,23.93
2018-09-20T03:23:02.414Z,23.94
2018-09-20T03:23:34.341Z,23.94
2018-09-20T03:24:05.970Z,23.93
2018-09-20T03:24:37.592Z,23.92
2018-09-20T03:25:09.231Z,23.91
2018-09-20T03:25:40.926Z,23.91
2018-09-20T03:26:12.548Z,23.90
2018-09-20T03:26:44.169Z,23.91
2018-09-20T03:27:15.788Z,23.91
2018-09-20T03:27:47.418Z,23.91
2018-09-20T03:28:19.054Z,23.91
2018-09-20T03:28:51.333Z,23.92
2018-09-20T03:29:22.966Z,23.92
2018-09-20T03:29:54.592Z,23.93
2018-09-20T03:30:26.256Z,23.93
2018-09-20T03:30:57.941Z,23.92
2018-09-20T03:31:29.574Z,23.92
2018-09-20T03:32:01.211Z,23.89
2018-09-20T03:32:32.866Z,23.91
2018-09-20T03:33:04.767Z,23.91
2018-09-20T03:33:36.401Z,23.91
2018-09-20T03:34:08.087Z,23.90
2018-09-20T03:34:39.713Z,23.90
2018-09-20T03:35:11.350Z,23.90
2018-09-20T03:35:42.987Z,23.90
2018-09-20T03:36:14.612Z,23.90
2018-09-20T03:36:47.196Z,23.89
2018-09-20T03:37:18.821Z,23.89
2018-09-20T03:37:50.441Z,23.89
2018-09-20T03:38:22.064Z,23.89
2018-09-20T03:38:53.685Z,23.88
2018-09-20T03:39:25.315Z,23.89
2018-09-20T03:39:56.950Z,23.88
2018-09-20T03:40:28.588Z,23.88
2018-09-20T03:41:00.229Z,23.88
2018-09-20T03:41:31.864Z,23.88
2018-09-20T03:42:03.614Z,23.88
2018-09-20T03:42:35.237Z,23.87
2018-09-20T03:43:06.857Z,23.87
2018-09-20T03:43:38.480Z,23.87
2018-09-20T03:44:10.115Z,23.67
2018-09-20T03:44:41.747Z,23.87
2018-09-20T03:45:13.373Z,23.87
2018-09-20T03:45:44.997Z,23.87
2018-09-20T03:46:16.621Z,23.87
2018-09-20T03:46:48.254Z,23.86
2018-09-20T03:47:20.869Z,23.86
2018-09-20T03:47:52.498Z,23.85
2018-09-20T03:48:24.138Z,23.86
2018-09-20T03:48:55.764Z,23.86
2018-09-20T03:49:27.405Z,23.86
2018-09-20T03:49:59.033Z,23.86
2018-09-20T03:50:30.649Z,23.85
2018-09-20T03:51:02.268Z,23.85
2018-09-20T03:51:33.909Z,23.86
2018-09-20T03:52:05.553Z,23.87
2018-09-20T03:52:37.292Z,23.89
2018-09-20T03:53:08.926Z,23.90
2018-09-20T03:53:40.582Z,23.90
2018-09-20T03:54:12.215Z,23.90
2018-09-20T03:54:43.832Z,23.91
2018-09-20T03:55:15.471Z,23.91
2018-09-20T03:55:47.102Z,23.92
2018-09-20T03:56:18.737Z,23.92
2018-09-20T03:56:50.380Z,23.92
2018-09-20T03:57:22.015Z,23.92
2018-09-20T03:57:54.880Z,23.92
2018-09-20T03:58:26.501Z,23.91
2018-09-20T03:58:58.116Z,23.91
2018-09-20T03:59:29.747Z,23.91
2018-09-20T04:00:01.384Z,23.90
2018-09-20T04:00:33.018Z,23.91
2018-09-20T04:01:04.651Z,23.90
2018-09-20T04:01:36.273Z,23.90
2018-09-20T04:02:08.941Z,23.91
2018-09-20T04:02:40.564Z,23.92
2018-09-20T04:03:12.184Z,23.93
2018-09-20T04:03:43.823Z,23.93
2018-09-20T04:04:15.472Z,23.94
2018-09-20T04:04:47.104Z,23.95
2018-09-20T04:05:18.734Z,23.95
2018-09-20T04:05:50.366Z,23.95
2018-09-20T04:06:21.998Z,23.95
2018-09-20T04:06:53.616Z,23.94
2018-09-20T04:07:25.251Z,23.93
2018-09-20T04:07:56.943Z,23.93
2018-09-20T04:08:28.607Z,23.93
2018-09-20T04:09:00.232Z,23.94
2018-09-20T04:09:31.906Z,23.93
2018-09-20T04:10:03.529Z,23.93
2018-09-20T04:10:35.160Z,23.93
2018-09-20T04:11:06.818Z,23.93
2018-09-20T04:11:38.450Z,23.92
2018-09-20T04:12:10.082Z,23.90
2018-09-20T04:12:41.718Z,23.92
2018-09-20T04:13:13.373Z,23.93
2018-09-20T04:13:45.126Z,23.93
2018-09-20T04:14:16.761Z,23.82
2018-09-20T04:14:48.380Z,23.93
2018-09-20T04:15:20.015Z,23.95
2018-09-20T04:15:51.632Z,23.96
2018-09-20T04:16:23.249Z,23.96
2018-09-20T04:16:54.882Z,23.76
2018-09-20T04:17:26.504Z,23.95
2018-09-20T04:17:58.139Z,23.96
2018-09-20T04:18:29.774Z,23.95
2018-09-20T04:19:01.527Z,23.95
2018-09-20T04:19:33.171Z,23.95
2018-09-20T04:20:04.801Z,23.95
2018-09-20T04:20:36.430Z,23.95
2018-09-20T04:21:08.052Z,23.95
2018-09-20T04:21:39.677Z,23.95
2018-09-20T04:22:11.311Z,23.95
2018-09-20T04:22:42.932Z,23.94
2018-09-20T04:23:14.553Z,23.93
2018-09-20T04:23:46.181Z,23.93
2018-09-20T04:24:17.927Z,23.94
2018-09-20T04:24:49.566Z,23.94
2018-09-20T04:25:21.203Z,23.93
2018-09-20T04:25:52.824Z,23.93
2018-09-20T04:26:24.445Z,23.94
2018-09-20T04:26:56.065Z,23.93
2018-09-20T04:27:27.688Z,23.93
2018-09-20T04:28:00.505Z,23.92
2018-09-20T04:28:32.141Z,23.93
2018-09-20T04:29:03.808Z,23.93
2018-09-20T04:29:35.471Z,23.93
2018-09-20T04:30:07.107Z,23.92
2018-09-20T04:30:38.728Z,23.91
2018-09-20T04:31:10.363Z,23.91
2018-09-20T04:31:41.989Z,23.91
2018-09-20T04:32:13.630Z,23.91
2018-09-20T04:32:45.267Z,23.91
2018-09-20T04:33:16.888Z,23.91
2018-09-20T04:33:48.529Z,23.91
2018-09-20T04:34:20.163Z,23.91
2018-09-20T04:34:52.020Z,23.92
2018-09-20T04:35:24.351Z,23.91
2018-09-20T04:35:55.980Z,23.91
2018-09-20T04:36:27.600Z,23.91
2018-09-20T04:36:59.221Z,23.91
2018-09-20T04:37:30.855Z,23.91
2018-09-20T04:38:02.480Z,23.91
2018-09-20T04:38:34.101Z,23.91
2018-09-20T04:39:05.724Z,23.91
2018-09-20T04:39:37.340Z,23.91
2018-09-20T04:40:09.278Z,23.90
2018-09-20T04:40:40.894Z,23.91
2018-09-20T04:41:12.527Z,23.90
2018-09-20T04:41:44.145Z,23.90
2018-09-20T04:42:15.761Z,23.89
2018-09-20T04:42:47.376Z,23.91
2018-09-20T04:43:19.011Z,23.90
2018-09-20T04:43:50.650Z,23.90
2018-09-20T04:44:22.265Z,23.89
2018-09-20T04:44:53.885Z,23.89
2018-09-20T04:45:25.509Z,23.90
2018-09-20T04:45:58.325Z,23.89
2018-09-20T04:46:29.950Z,23.90
2018-09-20T04:47:01.603Z,23.90
2018-09-20T04:47:33.240Z,23.90
2018-09-20T04:48:04.871Z,23.90
2018-09-20T04:48:36.518Z,23.90
2018-09-20T04:49:08.154Z,23.88
2018-09-20T04:49:39.775Z,23.89
2018-09-20T04:50:11.393Z,23.90
2018-09-20T04:50:43.867Z,23.87
2018-09-20T04:51:15.484Z,23.89
2018-09-20T04:51:47.104Z,23.89
2018-09-20T04:52:18.724Z,23.89
2018-09-20T04:52:50.344Z,23.89
2018-09-20T04:53:22.006Z,23.91
2018-09-20T04:53:53.642Z,23.90
2018-09-20T04:54:25.275Z,23.89
2018-09-20T04:54:56.923Z,23.87
2018-09-20T04:55:28.555Z,23.89
2018-09-20T04:56:00.219Z,23.89
2018-09-20T04:56:31.844Z,23.88
2018-09-20T04:57:03.474Z,23.87
2018-09-20T04:57:35.105Z,23.86
2018-09-20T04:58:06.725Z,23.85
2018-09-20T04:58:38.359Z,23.85
2018-09-20T04:59:09.998Z,23.83
2018-09-20T04:59:41.620Z,23.83
2018-09-20T05:00:13.420Z,23.84
2018-09-20T05:00:45.046Z,23.83
2018-09-20T05:01:16.748Z,23.82
2018-09-20T05:01:48.368Z,23.82
2018-09-20T05:02:20.010Z,23.80
2018-09-20T05:02:51.644Z,23.81
2018-09-20T05:03:23.274Z,23.81
2018-09-20T05:03:54.911Z,23.80
2018-09-20T05:04:26.542Z,23.80
2018-09-20T05:04:58.175Z,23.79
2018-09-20T05:05:30.914Z,23.78
2018-09-20T05:06:02.556Z,23.79
2018-09-20T05:06:34.271Z,23.79
2018-09-20T05:07:06.652Z,23.79
2018-09-20T05:07:38.287Z,23.79
2018-09-20T05:08:09.918Z,23.59
2018-09-20T05:08:41.537Z,23.79
2018-09-20T05:09:14.517Z,23.79
2018-09-20T05:09:46.132Z,23.78
2018-09-20T05:10:17.767Z,23.78
2018-09-20T05:10:49.402Z,23.78
2018-09-20T05:11:21.027Z,23.78
2018-09-20T05:11:52.681Z,23.78
2018-09-20T05:12:24.395Z,23.78
2018-09-20T05:12:56.012Z,23.78
2018-09-20T05:13:27.628Z,23.78
2018-09-20T05:13:59.253Z,23.78
2018-09-20T05:14:30.894Z,23.78
2018-09-20T05:15:02.532Z,23.78
2018-09-20T05:15:34.152Z,23.78
2018-09-20T05:16:05.769Z,23.78
2018-09-20T05:16:37.399Z,23.78
2018-09-20T05:17:09.031Z,23.77
2018-09-20T05:17:40.648Z,23.77
2018-09-20T05:18:12.265Z,23.77
2018-09-20T05:18:43.899Z,23.77
2018-09-20T05:19:15.542Z,23.77
2018-09-20T05:19:47.160Z,23.77
2018-09-20T05:20:18.898Z,23.77
2018-09-20T05:20:50.440Z,23.77
2018-09-20T05:21:22.075Z,23.77
2018-09-20T05:21:53.711Z,23.77
2018-09-20T05:22:25.379Z,23.77
2018-09-20T05:22:57.082Z,23.77
2018-09-20T05:23:28.753Z,23.75
2018-09-20T05:24:00.367Z,23.77
2018-09-20T05:24:31.994Z,23.76
2018-09-20T05:25:03.636Z,23.74
2018-09-20T05:25:35.313Z,23.76
2018-09-20T05:26:06.925Z,23.76
2018-09-20T05:26:38.548Z,23.78
2018-09-20T05:27:10.178Z,23.80
2018-09-20T05:27:44.665Z,23.82
2018-09-20T05:28:16.406Z,23.84
2018-09-20T05:28:48.031Z,23.85
2018-09-20T05:29:20.305Z,23.85
2018-09-20T05:29:51.935Z,23.86
2018-09-20T05:30:23.577Z,23.87
2018-09-20T05:30:55.202Z,23.88
2018-09-20T05:31:26.834Z,23.89
2018-09-20T05:31:58.466Z,23.89
2018-09-20T05:32:30.140Z,23.89
2018-09-20T05:33:01.756Z,23.91
2018-09-20T05:33:34.145Z,23.91
2018-09-20T05:34:05.779Z,23.93
2018-09-20T05:34:37.396Z,23.93
2018-09-20T05:35:09.017Z,23.93
2018-09-20T05:35:40.645Z,23.93
2018-09-20T05:36:13.134Z,23.91
2018-09-20T05:36:44.772Z,23.90
2018-09-20T05:37:16.406Z,23.91
2018-09-20T05:37:48.318Z,23.91
2018-09-20T05:38:19.942Z,23.71
2018-09-20T05:38:51.641Z,23.91
2018-09-20T05:39:23.279Z,23.91
2018-09-20T05:39:54.896Z,23.92
2018-09-20T05:40:26.527Z,23.92
2018-09-20T05:40:58.171Z,23.94
2018-09-20T05:41:29.807Z,23.96
2018-09-20T05:42:01.463Z,23.97
2018-09-20T05:42:36.957Z,23.97
2018-09-20T05:43:08.589Z,23.97
2018-09-20T05:43:40.303Z,23.97
2018-09-20T05:44:11.922Z,23.97
2018-09-20T05:44:43.544Z,23.97
2018-09-20T05:45:15.173Z,23.97
2018-09-20T05:45:47.578Z,23.97
2018-09-20T05:46:19.217Z,23.96
2018-09-20T05:46:51.718Z,23.96
2018-09-20T05:47:23.363Z,23.95
2018-09-20T05:47:54.988Z,23.93
2018-09-20T05:48:26.624Z,23.96
2018-09-20T05:48:58.503Z,23.96
2018-09-20T05:49:30.138Z,23.97
2018-09-20T05:50:01.775Z,23.98
2018-09-20T05:50:33.404Z,23.98
2018-09-20T05:51:05.020Z,23.97
2018-09-20T05:51:36.650Z,24.01
2018-09-20T05:52:08.300Z,24.01
2018-09-20T05:52:39.934Z,24.01
2018-09-20T05:53:11.675Z,24.01
2018-09-20T05:53:44.247Z,24.01
2018-09-20T05:54:16.019Z,24.01
2018-09-20T05:54:47.644Z,23.99
2018-09-20T05:55:19.277Z,24.01
2018-09-20T05:55:50.912Z,24.01
2018-09-20T05:56:22.536Z,24.00
2018-09-20T05:56:54.166Z,24.00
2018-09-20T05:57:25.788Z,23.98
2018-09-20T05:57:57.492Z,24.00
2018-09-20T05:58:29.126Z,23.99
2018-09-20T05:59:00.759Z,23.99
2018-09-20T05:59:32.391Z,23.99
2018-09-20T06:00:04.023Z,23.99
2018-09-20T06:00:35.660Z,23.99
2018-09-20T06:01:09.500Z,23.98
2018-09-20T06:01:41.130Z,23.99
2018-09-20T06:02:12.749Z,23.98
2018-09-20T06:02:44.374Z,23.98
2018-09-20T06:03:15.996Z,23.98
2018-09-20T06:03:47.641Z,23.99
2018-09-20T06:04:19.268Z,23.99
2018-09-20T06:04:51.652Z,23.98
2018-09-20T06:05:23.288Z,23.98
2018-09-20T06:05:55.822Z,23.98
2018-09-20T06:06:27.428Z,23.99
2018-09-20T06:06:59.052Z,23.98
2018-09-20T06:07:30.672Z,23.98
2018-09-20T06:08:02.321Z,23.99
2018-09-20T06:08:33.945Z,24.00
2018-09-20T06:09:05.579Z,24.01
2018-09-20T06:09:37.214Z,24.01
2018-09-20T06:10:08.956Z,24.01
2018-09-20T06:10:40.588Z,24.01
2018-09-20T06:11:12.209Z,24.02
2018-09-20T06:11:45.744Z,24.02
2018-09-20T06:12:17.368Z,24.01
2018-09-20T06:12:48.987Z,24.01
2018-09-20T06:13:20.710Z,24.00
2018-09-20T06:13:54.700Z,23.98
2018-09-20T06:14:26.331Z,23.98
2018-09-20T06:14:57.971Z,23.99
2018-09-20T06:15:29.679Z,24.00
2018-09-20T06:16:01.308Z,23.99
2018-09-20T06:16:32.932Z,23.99
2018-09-20T06:17:04.549Z,24.00
2018-09-20T06:17:36.828Z,23.99
2018-09-20T06:18:08.563Z,23.99
2018-09-20T06:18:40.223Z,23.99
2018-09-20T06:19:11.868Z,23.99
2018-09-20T06:19:43.504Z,23.99
2018-09-20T06:20:15.135Z,23.99
2018-09-20T06:20:46.844Z,24.01
2018-09-20T06:21:18.814Z,24.05
2018-09-20T06:21:50.467Z,24.05
2018-09-20T06:22:22.093Z,24.06
2018-09-20T06:22:53.722Z,24.07
2018-09-20T06:23:25.354Z,24.07
2018-09-20T06:23:56.976Z,24.06
2018-09-20T06:24:29.318Z,24.07
2018-09-20T06:25:00.949Z,24.08
2018-09-20T06:25:32.584Z,24.06
2018-09-20T06:26:04.284Z,24.04
2018-09-20T06:26:36.753Z,24.03
2018-09-20T06:27:08.373Z,23.99
2018-09-20T06:27:40.046Z,23.98
2018-09-20T06:28:11.663Z,23.91
2018-09-20T06:28:43.299Z,23.93
2018-09-20T06:29:14.920Z,23.93
2018-09-20T06:29:46.551Z,23.92
2018-09-20T06:30:18.187Z,23.93
2018-09-20T06:30:49.808Z,23.90
2018-09-20T06:31:21.552Z,23.93
2018-09-20T06:31:54.117Z,23.93
2018-09-20T06:32:25.756Z,23.94
2018-09-20T06:32:57.397Z,23.93
2018-09-20T06:33:29.018Z,23.83
2018-09-20T06:34:00.645Z,23.93
2018-09-20T06:34:32.275Z,23.94
2018-09-20T06:35:04.722Z,23.90
2018-09-20T06:35:36.341Z,23.94
2018-09-20T06:36:07.965Z,23.94
2018-09-20T06:36:39.585Z,23.94
2018-09-20T06:37:11.294Z,23.95
2018-09-20T06:37:42.934Z,23.94
2018-09-20T06:38:14.579Z,23.92
2018-09-20T06:38:46.224Z,23.94
2018-09-20T06:39:17.878Z,23.94
2018-09-20T06:39:49.500Z,23.95
2018-09-20T06:40:21.132Z,23.95
2018-09-20T06:40:52.763Z,23.95
2018-09-20T06:41:24.389Z,23.95
2018-09-20T06:41:56.021Z,23.86
2018-09-20T06:42:27.727Z,23.96
2018-09-20T06:42:59.361Z,23.98
2018-09-20T06:43:30.999Z,23.98
2018-09-20T06:44:02.628Z,23.97
2018-09-20T06:44:35.249Z,23.97
2018-09-20T06:45:06.886Z,23.98
2018-09-20T06:45:39.455Z,23.98
2018-09-20T06:46:11.091Z,23.98
2018-09-20T06:46:42.713Z,23.98
2018-09-20T06:47:14.332Z,23.98
2018-09-20T06:47:46.131Z,23.78
2018-09-20T06:48:17.795Z,23.98